sensor_id;sensor_type;location;lat;lon;timestamp;P1;durP1;ratioP1;P2;durP2;ratioP2
52608;SDS011;38503;48.544;12.142;2023-03-01T00:01:19;25.77;;;17.13;;
52608;SDS011;38503;48.544;12.142;2023-03-01T00:03:49;21.23;;;14.67;;
52608;SDS011;38503;48.544;12.142;2023-03-01T00:06:16;27.53;;;17.17;;
52608;SDS011;38503;48.544;12.142;2023-03-01T00:08:43;22.93;;;16.20;;
52608;SDS011;38503;48.544;12.142;2023-03-01T00:13:43;23.77;;;16.30;;
52608;SDS011;38503;48.544;12.142;2023-03-01T00:16:12;20.83;;;15.17;;
52608;SDS011;38503;48.544;12.142;2023-03-01T00:18:45;25.27;;;15.07;;
52608;SDS011;38503;48.544;12.142;2023-03-01T00:21:12;21.03;;;15.40;;
52608;SDS011;38503;48.544;12.142;2023-03-01T00:23:39;22.53;;;15.67;;
52608;SDS011;38503;48.544;12.142;2023-03-01T00:26:10;23.17;;;15.47;;
52608;SDS011;38503;48.544;12.142;2023-03-01T00:28:39;20.60;;;14.77;;
52608;SDS011;38503;48.544;12.142;2023-03-01T00:31:11;22.00;;;15.03;;
52608;SDS011;38503;48.544;12.142;2023-03-01T00:33:40;21.87;;;14.73;;
52608;SDS011;38503;48.544;12.142;2023-03-01T00:36:07;21.30;;;15.57;;
52608;SDS011;38503;48.544;12.142;2023-03-01T00:38:37;21.57;;;15.93;;
52608;SDS011;38503;48.544;12.142;2023-03-01T00:41:05;21.63;;;15.60;;
52608;SDS011;38503;48.544;12.142;2023-03-01T00:43:36;23.40;;;15.87;;
52608;SDS011;38503;48.544;12.142;2023-03-01T00:46:07;21.90;;;15.33;;
52608;SDS011;38503;48.544;12.142;2023-03-01T00:48:36;20.27;;;14.67;;
52608;SDS011;38503;48.544;12.142;2023-03-01T00:51:04;25.90;;;15.90;;
52608;SDS011;38503;48.544;12.142;2023-03-01T00:53:31;20.63;;;14.53;;
52608;SDS011;38503;48.544;12.142;2023-03-01T00:55:59;22.73;;;15.47;;
52608;SDS011;38503;48.544;12.142;2023-03-01T00:58:26;22.13;;;15.77;;
52608;SDS011;38503;48.544;12.142;2023-03-01T01:00:53;27.60;;;15.77;;
52608;SDS011;38503;48.544;12.142;2023-03-01T01:03:20;23.90;;;15.87;;
52608;SDS011;38503;48.544;12.142;2023-03-01T01:05:47;23.93;;;15.53;;
52608;SDS011;38503;48.544;12.142;2023-03-01T01:08:14;25.47;;;17.67;;
52608;SDS011;38503;48.544;12.142;2023-03-01T01:10:42;23.77;;;15.63;;
52608;SDS011;38503;48.544;12.142;2023-03-01T01:13:10;25.03;;;15.87;;
52608;SDS011;38503;48.544;12.142;2023-03-01T01:15:38;23.17;;;15.53;;
52608;SDS011;38503;48.544;12.142;2023-03-01T01:18:05;23.77;;;16.23;;
52608;SDS011;38503;48.544;12.142;2023-03-01T01:20:33;23.57;;;15.63;;
52608;SDS011;38503;48.544;12.142;2023-03-01T01:23:04;23.33;;;15.60;;
52608;SDS011;38503;48.544;12.142;2023-03-01T01:25:33;23.07;;;15.77;;
52608;SDS011;38503;48.544;12.142;2023-03-01T01:28:02;26.13;;;16.93;;
52608;SDS011;38503;48.544;12.142;2023-03-01T01:30:29;25.67;;;16.63;;
52608;SDS011;38503;48.544;12.142;2023-03-01T01:32:56;27.57;;;17.43;;
52608;SDS011;38503;48.544;12.142;2023-03-01T01:35:22;25.27;;;15.70;;
52608;SDS011;38503;48.544;12.142;2023-03-01T01:37:49;24.63;;;16.90;;
52608;SDS011;38503;48.544;12.142;2023-03-01T01:40:16;24.43;;;17.40;;
52608;SDS011;38503;48.544;12.142;2023-03-01T01:42:43;24.20;;;16.93;;
52608;SDS011;38503;48.544;12.142;2023-03-01T01:45:30;24.13;;;16.53;;
52608;SDS011;38503;48.544;12.142;2023-03-01T01:48:03;26.70;;;17.17;;
52608;SDS011;38503;48.544;12.142;2023-03-01T01:50:36;26.33;;;18.70;;
52608;SDS011;38503;48.544;12.142;2023-03-01T01:53:10;23.93;;;16.60;;
52608;SDS011;38503;48.544;12.142;2023-03-01T01:55:42;24.13;;;16.67;;
52608;SDS011;38503;48.544;12.142;2023-03-01T01:58:13;28.63;;;17.47;;
52608;SDS011;38503;48.544;12.142;2023-03-01T02:00:44;25.70;;;18.03;;
52608;SDS011;38503;48.544;12.142;2023-03-01T02:03:13;27.47;;;18.03;;
52608;SDS011;38503;48.544;12.142;2023-03-01T02:05:57;28.47;;;17.40;;
52608;SDS011;38503;48.544;12.142;2023-03-01T02:08:25;26.10;;;17.40;;
52608;SDS011;38503;48.544;12.142;2023-03-01T02:10:56;28.20;;;18.53;;
52608;SDS011;38503;48.544;12.142;2023-03-01T02:13:26;25.40;;;16.80;;
52608;SDS011;38503;48.544;12.142;2023-03-01T02:15:53;28.67;;;17.97;;
52608;SDS011;38503;48.544;12.142;2023-03-01T02:18:20;26.77;;;16.97;;
52608;SDS011;38503;48.544;12.142;2023-03-01T02:23:40;26.40;;;16.83;;
52608;SDS011;38503;48.544;12.142;2023-03-01T02:28:50;26.10;;;18.13;;
52608;SDS011;38503;48.544;12.142;2023-03-01T02:31:18;27.03;;;17.53;;
52608;SDS011;38503;48.544;12.142;2023-03-01T02:34:06;24.40;;;17.07;;
52608;SDS011;38503;48.544;12.142;2023-03-01T02:36:45;28.23;;;18.27;;
52608;SDS011;38503;48.544;12.142;2023-03-01T02:39:17;24.70;;;17.20;;
52608;SDS011;38503;48.544;12.142;2023-03-01T02:41:51;29.23;;;17.50;;
52608;SDS011;38503;48.544;12.142;2023-03-01T02:44:20;26.20;;;17.77;;
52608;SDS011;38503;48.544;12.142;2023-03-01T02:46:49;24.23;;;16.73;;
52608;SDS011;38503;48.544;12.142;2023-03-01T02:51:55;25.60;;;17.37;;
52608;SDS011;38503;48.544;12.142;2023-03-01T02:54:40;25.57;;;17.03;;
52608;SDS011;38503;48.544;12.142;2023-03-01T02:57:20;30.50;;;17.33;;
52608;SDS011;38503;48.544;12.142;2023-03-01T02:59:48;24.77;;;16.47;;
52608;SDS011;38503;48.544;12.142;2023-03-01T03:02:21;24.53;;;16.43;;
52608;SDS011;38503;48.544;12.142;2023-03-01T03:05:16;25.70;;;17.43;;
52608;SDS011;38503;48.544;12.142;2023-03-01T03:07:46;28.50;;;17.17;;
52608;SDS011;38503;48.544;12.142;2023-03-01T03:10:15;30.80;;;18.13;;
52608;SDS011;38503;48.544;12.142;2023-03-01T03:12:49;29.53;;;17.20;;
52608;SDS011;38503;48.544;12.142;2023-03-01T03:15:17;26.13;;;17.13;;
52608;SDS011;38503;48.544;12.142;2023-03-01T03:17:44;24.63;;;16.00;;
52608;SDS011;38503;48.544;12.142;2023-03-01T03:20:12;29.97;;;18.20;;
52608;SDS011;38503;48.544;12.142;2023-03-01T03:22:49;27.50;;;18.07;;
52608;SDS011;38503;48.544;12.142;2023-03-01T03:25:18;24.33;;;17.60;;
52608;SDS011;38503;48.544;12.142;2023-03-01T03:27:47;27.40;;;16.97;;
52608;SDS011;38503;48.544;12.142;2023-03-01T03:30:16;25.37;;;16.27;;
52608;SDS011;38503;48.544;12.142;2023-03-01T03:32:45;27.37;;;18.43;;
52608;SDS011;38503;48.544;12.142;2023-03-01T03:35:23;27.63;;;18.67;;
52608;SDS011;38503;48.544;12.142;2023-03-01T03:37:58;30.87;;;18.00;;
52608;SDS011;38503;48.544;12.142;2023-03-01T03:40:31;29.63;;;18.97;;
52608;SDS011;38503;48.544;12.142;2023-03-01T03:42:59;26.63;;;18.03;;
52608;SDS011;38503;48.544;12.142;2023-03-01T03:45:26;27.70;;;17.90;;
52608;SDS011;38503;48.544;12.142;2023-03-01T03:47:52;26.93;;;18.10;;
52608;SDS011;38503;48.544;12.142;2023-03-01T03:50:19;31.87;;;18.10;;
52608;SDS011;38503;48.544;12.142;2023-03-01T03:52:46;28.33;;;18.03;;
52608;SDS011;38503;48.544;12.142;2023-03-01T03:55:13;27.43;;;17.93;;
52608;SDS011;38503;48.544;12.142;2023-03-01T03:57:40;28.20;;;19.33;;
52608;SDS011;38503;48.544;12.142;2023-03-01T04:00:08;28.57;;;19.10;;
52608;SDS011;38503;48.544;12.142;2023-03-01T04:02:42;27.93;;;17.80;;
52608;SDS011;38503;48.544;12.142;2023-03-01T04:05:09;27.10;;;18.80;;
52608;SDS011;38503;48.544;12.142;2023-03-01T04:07:37;27.57;;;18.20;;
52608;SDS011;38503;48.544;12.142;2023-03-01T04:10:05;29.07;;;17.73;;
52608;SDS011;38503;48.544;12.142;2023-03-01T04:12:34;28.87;;;18.83;;
52608;SDS011;38503;48.544;12.142;2023-03-01T04:15:03;31.43;;;19.23;;
52608;SDS011;38503;48.544;12.142;2023-03-01T04:17:47;29.57;;;19.17;;
52608;SDS011;38503;48.544;12.142;2023-03-01T04:20:15;28.67;;;18.77;;
52608;SDS011;38503;48.544;12.142;2023-03-01T04:22:43;31.40;;;18.47;;
52608;SDS011;38503;48.544;12.142;2023-03-01T04:25:13;29.73;;;19.30;;
52608;SDS011;38503;48.544;12.142;2023-03-01T04:27:40;31.53;;;19.23;;
52608;SDS011;38503;48.544;12.142;2023-03-01T04:30:07;32.50;;;19.77;;
52608;SDS011;38503;48.544;12.142;2023-03-01T04:32:35;32.37;;;20.13;;
52608;SDS011;38503;48.544;12.142;2023-03-01T04:35:01;29.57;;;18.73;;
52608;SDS011;38503;48.544;12.142;2023-03-01T04:37:28;31.67;;;19.33;;
52608;SDS011;38503;48.544;12.142;2023-03-01T04:39:55;32.50;;;19.60;;
52608;SDS011;38503;48.544;12.142;2023-03-01T04:42:22;32.20;;;20.10;;
52608;SDS011;38503;48.544;12.142;2023-03-01T04:44:49;31.33;;;19.97;;
52608;SDS011;38503;48.544;12.142;2023-03-01T04:47:17;34.27;;;20.20;;
52608;SDS011;38503;48.544;12.142;2023-03-01T04:49:44;32.00;;;19.67;;
52608;SDS011;38503;48.544;12.142;2023-03-01T04:52:10;31.43;;;19.47;;
52608;SDS011;38503;48.544;12.142;2023-03-01T04:54:37;32.73;;;20.00;;
52608;SDS011;38503;48.544;12.142;2023-03-01T04:57:04;32.33;;;21.13;;
52608;SDS011;38503;48.544;12.142;2023-03-01T04:59:31;34.63;;;19.63;;
52608;SDS011;38503;48.544;12.142;2023-03-01T05:01:57;33.93;;;21.17;;
52608;SDS011;38503;48.544;12.142;2023-03-01T05:04:26;31.70;;;21.20;;
52608;SDS011;38503;48.544;12.142;2023-03-01T05:06:53;34.33;;;21.43;;
52608;SDS011;38503;48.544;12.142;2023-03-01T05:09:20;31.73;;;20.73;;
52608;SDS011;38503;48.544;12.142;2023-03-01T05:11:46;34.63;;;21.87;;
52608;SDS011;38503;48.544;12.142;2023-03-01T05:14:13;34.30;;;21.03;;
52608;SDS011;38503;48.544;12.142;2023-03-01T05:16:40;38.90;;;19.20;;
52608;SDS011;38503;48.544;12.142;2023-03-01T05:19:07;32.60;;;20.33;;
52608;SDS011;38503;48.544;12.142;2023-03-01T05:21:42;30.23;;;19.63;;
52608;SDS011;38503;48.544;12.142;2023-03-01T05:24:28;32.67;;;21.17;;
52608;SDS011;38503;48.544;12.142;2023-03-01T05:26:59;29.97;;;19.97;;
52608;SDS011;38503;48.544;12.142;2023-03-01T05:29:27;30.87;;;20.07;;
52608;SDS011;38503;48.544;12.142;2023-03-01T05:31:59;32.53;;;20.53;;
52608;SDS011;38503;48.544;12.142;2023-03-01T05:34:29;32.63;;;20.30;;
52608;SDS011;38503;48.544;12.142;2023-03-01T05:36:58;35.40;;;21.10;;
52608;SDS011;38503;48.544;12.142;2023-03-01T05:39:26;30.07;;;20.50;;
52608;SDS011;38503;48.544;12.142;2023-03-01T05:41:56;34.60;;;22.13;;
52608;SDS011;38503;48.544;12.142;2023-03-01T05:44:25;34.23;;;20.73;;
52608;SDS011;38503;48.544;12.142;2023-03-01T05:46:55;34.07;;;20.33;;
52608;SDS011;38503;48.544;12.142;2023-03-01T05:49:22;33.37;;;21.13;;
52608;SDS011;38503;48.544;12.142;2023-03-01T05:51:50;31.70;;;20.03;;
52608;SDS011;38503;48.544;12.142;2023-03-01T05:54:19;35.83;;;20.40;;
52608;SDS011;38503;48.544;12.142;2023-03-01T05:56:47;31.57;;;20.97;;
52608;SDS011;38503;48.544;12.142;2023-03-01T05:59:14;34.63;;;21.13;;
52608;SDS011;38503;48.544;12.142;2023-03-01T06:01:42;36.50;;;22.13;;
52608;SDS011;38503;48.544;12.142;2023-03-01T06:04:09;34.30;;;21.43;;
52608;SDS011;38503;48.544;12.142;2023-03-01T06:06:37;34.27;;;21.87;;
52608;SDS011;38503;48.544;12.142;2023-03-01T06:09:04;34.97;;;20.43;;
52608;SDS011;38503;48.544;12.142;2023-03-01T06:11:34;37.60;;;20.77;;
52608;SDS011;38503;48.544;12.142;2023-03-01T06:14:01;33.03;;;20.03;;
52608;SDS011;38503;48.544;12.142;2023-03-01T06:16:28;34.33;;;21.10;;
52608;SDS011;38503;48.544;12.142;2023-03-01T06:18:55;34.73;;;21.97;;
52608;SDS011;38503;48.544;12.142;2023-03-01T06:21:22;32.07;;;20.50;;
52608;SDS011;38503;48.544;12.142;2023-03-01T06:23:49;34.03;;;21.27;;
52608;SDS011;38503;48.544;12.142;2023-03-01T06:26:15;29.13;;;19.83;;
52608;SDS011;38503;48.544;12.142;2023-03-01T06:28:42;31.30;;;19.67;;
52608;SDS011;38503;48.544;12.142;2023-03-01T06:31:12;26.47;;;18.23;;
52608;SDS011;38503;48.544;12.142;2023-03-01T06:33:39;29.13;;;17.77;;
52608;SDS011;38503;48.544;12.142;2023-03-01T06:36:06;29.87;;;19.30;;
52608;SDS011;38503;48.544;12.142;2023-03-01T06:38:33;26.97;;;18.60;;
52608;SDS011;38503;48.544;12.142;2023-03-01T06:41:00;29.00;;;18.70;;
52608;SDS011;38503;48.544;12.142;2023-03-01T06:43:28;32.17;;;19.20;;
52608;SDS011;38503;48.544;12.142;2023-03-01T06:45:55;26.40;;;19.00;;
52608;SDS011;38503;48.544;12.142;2023-03-01T06:48:21;33.73;;;18.87;;
52608;SDS011;38503;48.544;12.142;2023-03-01T06:50:48;27.03;;;17.93;;
52608;SDS011;38503;48.544;12.142;2023-03-01T06:53:15;27.40;;;17.83;;
52608;SDS011;38503;48.544;12.142;2023-03-01T06:55:42;24.50;;;17.93;;
52608;SDS011;38503;48.544;12.142;2023-03-01T06:58:09;29.77;;;18.33;;
52608;SDS011;38503;48.544;12.142;2023-03-01T07:00:36;28.03;;;18.07;;
52608;SDS011;38503;48.544;12.142;2023-03-01T07:03:03;28.83;;;19.13;;
52608;SDS011;38503;48.544;12.142;2023-03-01T07:05:29;26.37;;;19.17;;
52608;SDS011;38503;48.544;12.142;2023-03-01T07:07:56;26.47;;;18.43;;
52608;SDS011;38503;48.544;12.142;2023-03-01T07:10:24;28.53;;;19.27;;
52608;SDS011;38503;48.544;12.142;2023-03-01T07:12:53;26.37;;;18.83;;
52608;SDS011;38503;48.544;12.142;2023-03-01T07:15:21;26.87;;;19.40;;
52608;SDS011;38503;48.544;12.142;2023-03-01T07:17:51;25.73;;;17.27;;
52608;SDS011;38503;48.544;12.142;2023-03-01T07:20:18;30.00;;;18.73;;
52608;SDS011;38503;48.544;12.142;2023-03-01T07:22:51;24.97;;;18.90;;
52608;SDS011;38503;48.544;12.142;2023-03-01T07:25:18;26.63;;;18.13;;
52608;SDS011;38503;48.544;12.142;2023-03-01T07:27:48;23.00;;;17.70;;
52608;SDS011;38503;48.544;12.142;2023-03-01T07:30:19;27.60;;;18.93;;
52608;SDS011;38503;48.544;12.142;2023-03-01T07:32:46;26.80;;;19.20;;
52608;SDS011;38503;48.544;12.142;2023-03-01T07:35:14;26.83;;;18.33;;
52608;SDS011;38503;48.544;12.142;2023-03-01T07:37:41;27.83;;;17.50;;
52608;SDS011;38503;48.544;12.142;2023-03-01T07:40:08;27.17;;;19.50;;
52608;SDS011;38503;48.544;12.142;2023-03-01T07:42:36;31.77;;;19.77;;
52608;SDS011;38503;48.544;12.142;2023-03-01T07:45:04;31.87;;;18.90;;
52608;SDS011;38503;48.544;12.142;2023-03-01T07:47:31;27.60;;;18.80;;
52608;SDS011;38503;48.544;12.142;2023-03-01T07:49:58;26.73;;;19.20;;
52608;SDS011;38503;48.544;12.142;2023-03-01T07:52:25;30.00;;;18.90;;
52608;SDS011;38503;48.544;12.142;2023-03-01T07:54:52;26.97;;;18.63;;
52608;SDS011;38503;48.544;12.142;2023-03-01T07:57:18;24.30;;;18.77;;
52608;SDS011;38503;48.544;12.142;2023-03-01T07:59:45;24.20;;;17.73;;
52608;SDS011;38503;48.544;12.142;2023-03-01T08:02:12;25.50;;;18.37;;
52608;SDS011;38503;48.544;12.142;2023-03-01T08:04:41;23.70;;;17.93;;
52608;SDS011;38503;48.544;12.142;2023-03-01T08:07:08;23.47;;;17.90;;
52608;SDS011;38503;48.544;12.142;2023-03-01T08:09:35;22.23;;;17.60;;
52608;SDS011;38503;48.544;12.142;2023-03-01T08:12:04;24.67;;;18.83;;
52608;SDS011;38503;48.544;12.142;2023-03-01T08:14:32;26.00;;;18.93;;
52608;SDS011;38503;48.544;12.142;2023-03-01T08:16:58;27.03;;;18.00;;
52608;SDS011;38503;48.544;12.142;2023-03-01T08:19:25;23.23;;;17.87;;
52608;SDS011;38503;48.544;12.142;2023-03-01T08:21:54;24.90;;;18.27;;
52608;SDS011;38503;48.544;12.142;2023-03-01T08:24:24;23.90;;;17.30;;
52608;SDS011;38503;48.544;12.142;2023-03-01T08:26:51;23.47;;;17.27;;
52608;SDS011;38503;48.544;12.142;2023-03-01T08:29:17;24.90;;;17.17;;
52608;SDS011;38503;48.544;12.142;2023-03-01T08:31:44;23.77;;;18.47;;
52608;SDS011;38503;48.544;12.142;2023-03-01T08:34:12;24.13;;;17.73;;
52608;SDS011;38503;48.544;12.142;2023-03-01T08:36:42;24.10;;;18.07;;
52608;SDS011;38503;48.544;12.142;2023-03-01T08:39:11;21.30;;;16.67;;
52608;SDS011;38503;48.544;12.142;2023-03-01T08:41:40;22.83;;;17.03;;
52608;SDS011;38503;48.544;12.142;2023-03-01T08:44:08;22.97;;;17.40;;
52608;SDS011;38503;48.544;12.142;2023-03-01T08:46:40;22.57;;;17.50;;
52608;SDS011;38503;48.544;12.142;2023-03-01T08:49:08;20.73;;;16.83;;
52608;SDS011;38503;48.544;12.142;2023-03-01T08:51:38;22.83;;;17.73;;
52608;SDS011;38503;48.544;12.142;2023-03-01T08:54:05;21.43;;;16.93;;
52608;SDS011;38503;48.544;12.142;2023-03-01T08:56:36;23.63;;;18.30;;
52608;SDS011;38503;48.544;12.142;2023-03-01T08:59:03;20.30;;;15.23;;
52608;SDS011;38503;48.544;12.142;2023-03-01T09:01:30;19.73;;;14.93;;
52608;SDS011;38503;48.544;12.142;2023-03-01T09:03:56;20.83;;;14.93;;
52608;SDS011;38503;48.544;12.142;2023-03-01T09:06:23;22.93;;;16.83;;
52608;SDS011;38503;48.544;12.142;2023-03-01T09:08:50;24.20;;;17.10;;
52608;SDS011;38503;48.544;12.142;2023-03-01T09:11:19;21.33;;;15.53;;
52608;SDS011;38503;48.544;12.142;2023-03-01T09:13:47;22.23;;;16.33;;
52608;SDS011;38503;48.544;12.142;2023-03-01T09:16:16;22.37;;;16.30;;
52608;SDS011;38503;48.544;12.142;2023-03-01T09:18:48;23.17;;;16.83;;
52608;SDS011;38503;48.544;12.142;2023-03-01T09:21:17;22.07;;;15.87;;
52608;SDS011;38503;48.544;12.142;2023-03-01T09:24:02;22.70;;;16.60;;
52608;SDS011;38503;48.544;12.142;2023-03-01T09:26:29;22.07;;;14.53;;
52608;SDS011;38503;48.544;12.142;2023-03-01T09:28:56;24.33;;;16.20;;
52608;SDS011;38503;48.544;12.142;2023-03-01T09:31:23;23.37;;;17.30;;
52608;SDS011;38503;48.544;12.142;2023-03-01T09:33:51;21.57;;;16.50;;
52608;SDS011;38503;48.544;12.142;2023-03-01T09:36:20;23.07;;;17.17;;
52608;SDS011;38503;48.544;12.142;2023-03-01T09:38:49;20.07;;;14.87;;
52608;SDS011;38503;48.544;12.142;2023-03-01T09:47:18;22.33;;;16.50;;
52608;SDS011;38503;48.544;12.142;2023-03-01T09:49:53;22.20;;;15.50;;
52608;SDS011;38503;48.544;12.142;2023-03-01T09:52:34;23.27;;;17.13;;
52608;SDS011;38503;48.544;12.142;2023-03-01T09:55:09;21.80;;;16.60;;
52608;SDS011;38503;48.544;12.142;2023-03-01T09:57:59;22.07;;;15.70;;
52608;SDS011;38503;48.544;12.142;2023-03-01T10:06:23;22.90;;;14.93;;
52608;SDS011;38503;48.544;12.142;2023-03-01T10:09:02;21.80;;;15.57;;
52608;SDS011;38503;48.544;12.142;2023-03-01T10:11:37;22.47;;;15.37;;
52608;SDS011;38503;48.544;12.142;2023-03-01T10:19:57;24.47;;;16.20;;
52608;SDS011;38503;48.544;12.142;2023-03-01T10:22:51;20.37;;;16.37;;
52608;SDS011;38503;48.544;12.142;2023-03-01T10:25:36;21.43;;;16.37;;
52608;SDS011;38503;48.544;12.142;2023-03-01T10:28:30;21.07;;;16.47;;
52608;SDS011;38503;48.544;12.142;2023-03-01T10:31:11;22.63;;;16.57;;
52608;SDS011;38503;48.544;12.142;2023-03-01T10:33:41;21.00;;;16.20;;
52608;SDS011;38503;48.544;12.142;2023-03-01T10:36:08;20.07;;;15.53;;
52608;SDS011;38503;48.544;12.142;2023-03-01T10:38:49;20.80;;;16.13;;
52608;SDS011;38503;48.544;12.142;2023-03-01T10:41:24;21.40;;;16.37;;
52608;SDS011;38503;48.544;12.142;2023-03-01T10:43:54;21.60;;;16.03;;
52608;SDS011;38503;48.544;12.142;2023-03-01T10:51:42;23.87;;;16.70;;
52608;SDS011;38503;48.544;12.142;2023-03-01T10:57:00;21.07;;;16.13;;
52608;SDS011;38503;48.544;12.142;2023-03-01T11:07:28;23.40;;;17.00;;
52608;SDS011;38503;48.544;12.142;2023-03-01T11:09:55;20.37;;;16.00;;
52608;SDS011;38503;48.544;12.142;2023-03-01T11:12:22;21.03;;;16.33;;
52608;SDS011;38503;48.544;12.142;2023-03-01T11:14:51;23.67;;;15.80;;
52608;SDS011;38503;48.544;12.142;2023-03-01T11:17:27;22.53;;;17.07;;
52608;SDS011;38503;48.544;12.142;2023-03-01T11:22:53;22.87;;;16.67;;
52608;SDS011;38503;48.544;12.142;2023-03-01T11:25:25;24.40;;;17.03;;
52608;SDS011;38503;48.544;12.142;2023-03-01T11:27:55;20.73;;;15.43;;
52608;SDS011;38503;48.544;12.142;2023-03-01T11:35:35;19.03;;;15.80;;
52608;SDS011;38503;48.544;12.142;2023-03-01T11:38:21;20.80;;;16.20;;
52608;SDS011;38503;48.544;12.142;2023-03-01T11:40:54;21.37;;;17.60;;
52608;SDS011;38503;48.544;12.142;2023-03-01T11:43:33;22.57;;;17.47;;
52608;SDS011;38503;48.544;12.142;2023-03-01T12:09:06;18.07;;;15.60;;
52608;SDS011;38503;48.544;12.142;2023-03-01T12:14:17;19.20;;;17.00;;
52608;SDS011;38503;48.544;12.142;2023-03-01T12:22:33;20.67;;;16.53;;
52608;SDS011;38503;48.544;12.142;2023-03-01T12:25:23;19.70;;;16.80;;
52608;SDS011;38503;48.544;12.142;2023-03-01T12:50:00;17.87;;;14.57;;
52608;SDS011;38503;48.544;12.142;2023-03-01T12:55:05;20.73;;;16.07;;
52608;SDS011;38503;48.544;12.142;2023-03-01T12:57:46;19.83;;;15.43;;
52608;SDS011;38503;48.544;12.142;2023-03-01T13:00:30;20.47;;;16.57;;
52608;SDS011;38503;48.544;12.142;2023-03-01T13:11:56;19.03;;;14.90;;
52608;SDS011;38503;48.544;12.142;2023-03-01T13:14:45;20.03;;;14.60;;
52608;SDS011;38503;48.544;12.142;2023-03-01T13:17:31;17.07;;;13.10;;
52608;SDS011;38503;48.544;12.142;2023-03-01T13:20:14;17.13;;;13.43;;
52608;SDS011;38503;48.544;12.142;2023-03-01T13:22:43;20.90;;;14.07;;
52608;SDS011;38503;48.544;12.142;2023-03-01T13:25:20;20.67;;;13.80;;
52608;SDS011;38503;48.544;12.142;2023-03-01T13:27:50;20.23;;;14.07;;
52608;SDS011;38503;48.544;12.142;2023-03-01T13:30:38;19.57;;;13.30;;
52608;SDS011;38503;48.544;12.142;2023-03-01T13:35:52;19.87;;;13.93;;
52608;SDS011;38503;48.544;12.142;2023-03-01T13:38:37;16.00;;;12.40;;
52608;SDS011;38503;48.544;12.142;2023-03-01T13:41:04;22.40;;;13.93;;
52608;SDS011;38503;48.544;12.142;2023-03-01T13:43:32;17.10;;;12.00;;
52608;SDS011;38503;48.544;12.142;2023-03-01T13:46:08;19.47;;;12.73;;
52608;SDS011;38503;48.544;12.142;2023-03-01T13:48:39;19.07;;;13.20;;
52608;SDS011;38503;48.544;12.142;2023-03-01T13:51:10;17.37;;;11.77;;
52608;SDS011;38503;48.544;12.142;2023-03-01T13:53:44;19.50;;;13.63;;
52608;SDS011;38503;48.544;12.142;2023-03-01T13:56:16;17.30;;;12.80;;
52608;SDS011;38503;48.544;12.142;2023-03-01T13:58:58;15.57;;;11.77;;
52608;SDS011;38503;48.544;12.142;2023-03-01T14:01:29;19.27;;;12.53;;
52608;SDS011;38503;48.544;12.142;2023-03-01T14:03:59;24.07;;;12.53;;
52608;SDS011;38503;48.544;12.142;2023-03-01T14:06:28;17.67;;;12.93;;
52608;SDS011;38503;48.544;12.142;2023-03-01T14:09:01;19.13;;;12.43;;
52608;SDS011;38503;48.544;12.142;2023-03-01T14:14:19;20.97;;;12.33;;
52608;SDS011;38503;48.544;12.142;2023-03-01T14:17:16;17.60;;;12.17;;
52608;SDS011;38503;48.544;12.142;2023-03-01T14:19:56;20.03;;;12.77;;
52608;SDS011;38503;48.544;12.142;2023-03-01T14:22:33;17.83;;;11.63;;
52608;SDS011;38503;48.544;12.142;2023-03-01T14:25:03;17.53;;;11.30;;
52608;SDS011;38503;48.544;12.142;2023-03-01T14:27:41;18.03;;;12.63;;
52608;SDS011;38503;48.544;12.142;2023-03-01T14:30:17;15.70;;;11.27;;
52608;SDS011;38503;48.544;12.142;2023-03-01T14:32:55;15.10;;;11.20;;
52608;SDS011;38503;48.544;12.142;2023-03-01T14:35:28;15.17;;;10.87;;
52608;SDS011;38503;48.544;12.142;2023-03-01T14:38:00;18.33;;;10.97;;
52608;SDS011;38503;48.544;12.142;2023-03-01T14:40:28;15.73;;;11.10;;
52608;SDS011;38503;48.544;12.142;2023-03-01T14:42:59;15.43;;;11.37;;
52608;SDS011;38503;48.544;12.142;2023-03-01T14:45:29;17.13;;;10.87;;
52608;SDS011;38503;48.544;12.142;2023-03-01T14:47:58;16.83;;;11.30;;
52608;SDS011;38503;48.544;12.142;2023-03-01T14:50:31;15.37;;;10.10;;
52608;SDS011;38503;48.544;12.142;2023-03-01T14:53:04;14.87;;;11.23;;
52608;SDS011;38503;48.544;12.142;2023-03-01T14:55:37;13.57;;;10.43;;
52608;SDS011;38503;48.544;12.142;2023-03-01T14:58:14;22.07;;;11.37;;
52608;SDS011;38503;48.544;12.142;2023-03-01T15:03:31;14.83;;;11.40;;
52608;SDS011;38503;48.544;12.142;2023-03-01T15:06:05;18.33;;;12.80;;
52608;SDS011;38503;48.544;12.142;2023-03-01T15:08:33;17.17;;;12.83;;
52608;SDS011;38503;48.544;12.142;2023-03-01T15:11:04;21.20;;;13.60;;
52608;SDS011;38503;48.544;12.142;2023-03-01T15:13:43;20.67;;;12.87;;
52608;SDS011;38503;48.544;12.142;2023-03-01T15:16:13;19.67;;;13.37;;
52608;SDS011;38503;48.544;12.142;2023-03-01T15:18:50;20.23;;;13.00;;
52608;SDS011;38503;48.544;12.142;2023-03-01T15:21:23;17.20;;;12.67;;
52608;SDS011;38503;48.544;12.142;2023-03-01T15:24:02;17.67;;;13.43;;
52608;SDS011;38503;48.544;12.142;2023-03-01T15:26:56;20.80;;;12.80;;
52608;SDS011;38503;48.544;12.142;2023-03-01T15:29:28;16.67;;;12.40;;
52608;SDS011;38503;48.544;12.142;2023-03-01T15:32:00;17.53;;;13.30;;
52608;SDS011;38503;48.544;12.142;2023-03-01T15:34:34;19.73;;;13.97;;
52608;SDS011;38503;48.544;12.142;2023-03-01T15:37:06;16.63;;;12.70;;
52608;SDS011;38503;48.544;12.142;2023-03-01T15:39:54;15.93;;;12.77;;
52608;SDS011;38503;48.544;12.142;2023-03-01T15:45:10;19.93;;;14.07;;
52608;SDS011;38503;48.544;12.142;2023-03-01T15:47:39;19.50;;;13.83;;
52608;SDS011;38503;48.544;12.142;2023-03-01T15:50:23;21.77;;;15.10;;
52608;SDS011;38503;48.544;12.142;2023-03-01T15:52:53;19.03;;;13.60;;
52608;SDS011;38503;48.544;12.142;2023-03-01T15:55:28;20.63;;;14.43;;
52608;SDS011;38503;48.544;12.142;2023-03-01T16:00:55;17.40;;;13.43;;
52608;SDS011;38503;48.544;12.142;2023-03-01T16:03:27;20.77;;;14.20;;
52608;SDS011;38503;48.544;12.142;2023-03-01T16:05:54;22.10;;;16.03;;
52608;SDS011;38503;48.544;12.142;2023-03-01T16:08:21;21.63;;;14.27;;
52608;SDS011;38503;48.544;12.142;2023-03-01T16:10:48;21.27;;;15.80;;
52608;SDS011;38503;48.544;12.142;2023-03-01T16:13:17;21.40;;;15.13;;
52608;SDS011;38503;48.544;12.142;2023-03-01T16:15:45;23.40;;;15.37;;
52608;SDS011;38503;48.544;12.142;2023-03-01T16:18:12;23.80;;;15.67;;
52608;SDS011;38503;48.544;12.142;2023-03-01T16:20:39;21.77;;;15.17;;
52608;SDS011;38503;48.544;12.142;2023-03-01T16:23:06;22.60;;;16.77;;
52608;SDS011;38503;48.544;12.142;2023-03-01T16:25:36;22.97;;;16.27;;
52608;SDS011;38503;48.544;12.142;2023-03-01T16:28:03;24.27;;;17.27;;
52608;SDS011;38503;48.544;12.142;2023-03-01T16:30:35;23.07;;;16.73;;
52608;SDS011;38503;48.544;12.142;2023-03-01T16:33:03;28.07;;;18.53;;
52608;SDS011;38503;48.544;12.142;2023-03-01T16:35:49;23.83;;;17.47;;
52608;SDS011;38503;48.544;12.142;2023-03-01T16:38:16;24.70;;;17.47;;
52608;SDS011;38503;48.544;12.142;2023-03-01T16:40:46;28.83;;;18.57;;